createdAt,value
2023-03-26T00:00:05.912Z,82.64
2023-03-26T00:00:38.278Z,82.52
2023-03-26T00:01:15.562Z,82.67
2023-03-26T00:01:49.849Z,83.34
2023-03-26T00:02:21.536Z,83.91
2023-03-26T00:02:53.269Z,83.63
2023-03-26T00:03:24.953Z,83.30
2023-03-26T00:03:57.717Z,83.39
2023-03-26T00:04:29.852Z,83.89
2023-03-26T00:05:01.465Z,84.05
2023-03-26T00:05:33.105Z,84.06
2023-03-26T00:06:16.166Z,83.92
2023-03-26T00:06:49.148Z,83.92
2023-03-26T00:07:20.759Z,83.84
2023-03-26T00:07:52.362Z,83.83
2023-03-26T00:08:23.963Z,83.84
2023-03-26T00:08:57.620Z,83.75
2023-03-26T00:09:29.951Z,83.73
2023-03-26T00:10:01.555Z,83.71
2023-03-26T00:10:33.244Z,83.96
2023-03-26T00:11:06.689Z,84.14
2023-03-26T00:11:38.338Z,83.49
2023-03-26T00:12:09.914Z,83.55
2023-03-26T00:12:41.716Z,83.71
2023-03-26T00:13:13.393Z,83.50
2023-03-26T00:13:45.220Z,82.96
2023-03-26T00:14:18.770Z,82.75
2023-03-26T00:14:51.763Z,82.63
2023-03-26T00:15:23.346Z,82.60
2023-03-26T00:15:55.087Z,82.57
2023-03-26T00:16:29.494Z,82.55
2023-03-26T00:17:01.365Z,82.17
2023-03-26T00:17:33.442Z,81.91
2023-03-26T00:18:05.821Z,81.89
2023-03-26T00:18:40.494Z,81.71
2023-03-26T00:19:12.763Z,81.56
2023-03-26T00:19:44.448Z,81.55
2023-03-26T00:20:16.149Z,81.53
2023-03-26T00:20:48.103Z,81.48
2023-03-26T00:21:26.257Z,81.63
2023-03-26T00:21:58.096Z,81.33
2023-03-26T00:22:29.802Z,81.61
2023-03-26T00:23:04.577Z,81.24
2023-03-26T00:23:36.740Z,81.60
2023-03-26T00:24:17.563Z,81.70
2023-03-26T00:24:51.298Z,81.45
2023-03-26T00:25:23.784Z,81.25
2023-03-26T00:25:56.844Z,81.11
2023-03-26T00:26:31.209Z,81.28
2023-03-26T00:27:02.892Z,81.05
2023-03-26T00:27:34.492Z,81.02
2023-03-26T00:28:07.750Z,81.36
2023-03-26T00:28:41.690Z,81.07
2023-03-26T00:29:14.018Z,81.31
2023-03-26T00:29:48.210Z,81.59
2023-03-26T00:30:20.189Z,81.61
2023-03-26T00:31:03.473Z,81.74
2023-03-26T00:31:37.955Z,81.86
2023-03-26T00:32:09.541Z,81.45
2023-03-26T00:32:41.198Z,81.34
2023-03-26T00:33:13.052Z,81.14
2023-03-26T00:33:45.142Z,81.10
2023-03-26T00:34:18.788Z,81.15
2023-03-26T00:34:52.098Z,80.96
2023-03-26T00:35:24.075Z,81.49
2023-03-26T00:35:58.849Z,81.05
2023-03-26T00:36:31.209Z,81.39
2023-03-26T00:37:03.277Z,81.46
2023-03-26T00:37:34.913Z,81.28
2023-03-26T00:38:06.484Z,81.17
2023-03-26T00:38:41.430Z,81.16
2023-03-26T00:39:14.144Z,81.34
2023-03-26T00:39:49.181Z,81.26
2023-03-26T00:40:21.844Z,81.31
2023-03-26T00:40:54.834Z,81.34
2023-03-26T00:41:27.176Z,81.25
2023-03-26T00:41:58.845Z,81.28
2023-03-26T00:42:30.643Z,81.44
2023-03-26T00:43:02.445Z,81.44
2023-03-26T00:43:36.033Z,81.20
2023-03-26T00:44:07.649Z,81.57
2023-03-26T00:44:39.291Z,81.68
2023-03-26T00:45:11.403Z,81.74
2023-03-26T00:45:42.987Z,81.59
2023-03-26T00:46:14.831Z,81.38
2023-03-26T00:46:46.989Z,81.42
2023-03-26T00:47:18.760Z,81.59
2023-03-26T00:47:50.399Z,81.49
2023-03-26T00:48:31.379Z,81.62
2023-03-26T00:49:11.075Z,81.50
2023-03-26T00:49:46.764Z,81.25
2023-03-26T00:50:18.401Z,81.35
2023-03-26T00:50:50.602Z,81.21
2023-03-26T00:51:22.290Z,81.10
2023-03-26T00:51:53.930Z,81.07
2023-03-26T00:52:28.583Z,81.60
2023-03-26T00:53:00.198Z,81.36
2023-03-26T00:53:32.417Z,81.26
2023-03-26T00:54:04.037Z,81.37
2023-03-26T00:54:35.845Z,81.26
2023-03-26T00:55:07.803Z,81.27
2023-03-26T00:55:44.886Z,81.28
2023-03-26T00:56:17.106Z,80.93
2023-03-26T00:56:48.760Z,81.04
2023-03-26T00:57:32.988Z,81.10
2023-03-26T00:58:10.326Z,81.18
2023-03-26T00:58:42.399Z,81.23
2023-03-26T00:59:14.019Z,81.20
2023-03-26T00:59:45.776Z,81.13
2023-03-26T01:00:18.963Z,81.30
2023-03-26T01:00:59.911Z,81.47
2023-03-26T01:01:32.500Z,81.39
2023-03-26T01:02:04.775Z,81.45
2023-03-26T01:02:36.759Z,81.43
2023-03-26T01:03:21.877Z,81.46
2023-03-26T01:04:24.179Z,81.47
2023-03-26T01:05:02.844Z,81.55
2023-03-26T01:05:34.573Z,81.61
2023-03-26T01:06:21.524Z,81.63
2023-03-26T01:06:55.609Z,81.78
2023-03-26T01:07:29.054Z,81.86
2023-03-26T01:08:31.840Z,81.45
2023-03-26T01:09:26.322Z,81.80
2023-03-26T01:09:59.794Z,81.54
2023-03-26T01:10:38.711Z,81.82
2023-03-26T01:11:15.791Z,81.44
2023-03-26T01:11:48.839Z,81.29
2023-03-26T01:12:23.053Z,81.48
2023-03-26T01:12:54.677Z,81.52
2023-03-26T01:13:26.432Z,81.58
2023-03-26T01:14:02.715Z,81.62
2023-03-26T01:14:34.880Z,81.70
2023-03-26T01:15:08.344Z,81.59
2023-03-26T01:15:40.005Z,81.58
2023-03-26T01:16:28.608Z,81.44
2023-03-26T01:17:06.871Z,81.24
2023-03-26T01:17:38.934Z,81.32
2023-03-26T01:18:14.197Z,81.28
2023-03-26T01:18:46.548Z,81.41
2023-03-26T01:19:26.351Z,81.85
2023-03-26T01:20:13.016Z,81.48
2023-03-26T01:20:49.743Z,81.66
2023-03-26T01:21:28.720Z,81.82
2023-03-26T01:22:00.794Z,81.94
2023-03-26T01:22:36.689Z,81.96
2023-03-26T01:23:08.552Z,81.93
2023-03-26T01:23:51.357Z,81.93
2023-03-26T01:24:23.015Z,81.97
2023-03-26T01:24:56.721Z,82.08
2023-03-26T01:25:34.432Z,82.14
2023-03-26T01:26:24.444Z,82.39
2023-03-26T01:27:09.748Z,82.41
2023-03-26T01:27:55.697Z,82.31
2023-03-26T01:28:30.888Z,82.29
2023-03-26T01:29:04.263Z,81.99
2023-03-26T01:30:01.833Z,81.90
2023-03-26T01:30:37.177Z,81.77
2023-03-26T01:31:51.797Z,81.91
2023-03-26T01:32:46.382Z,81.69
2023-03-26T01:33:26.412Z,81.63
2023-03-26T01:34:12.888Z,81.44
2023-03-26T01:35:08.810Z,81.29
2023-03-26T01:35:49.311Z,81.15
2023-03-26T01:36:40.612Z,80.86
2023-03-26T01:37:13.347Z,80.70
2023-03-26T01:38:01.969Z,80.30
2023-03-26T01:38:54.553Z,79.96
2023-03-26T01:39:40.791Z,80.17
2023-03-26T01:40:42.893Z,79.93
2023-03-26T01:41:32.449Z,80.09
2023-03-26T01:42:11.660Z,80.02
2023-03-26T01:42:59.032Z,80.01
2023-03-26T01:43:43.696Z,79.96
2023-03-26T01:44:26.282Z,79.91
2023-03-26T01:45:05.798Z,80.26
2023-03-26T01:45:41.357Z,79.92
2023-03-26T01:46:15.464Z,79.94
2023-03-26T01:46:48.715Z,79.86
2023-03-26T01:47:21.431Z,79.81
2023-03-26T01:47:53.397Z,79.69
2023-03-26T01:48:36.218Z,79.82
2023-03-26T01:49:13.416Z,79.80
2023-03-26T01:49:45.294Z,79.70
2023-03-26T01:50:16.945Z,79.43
2023-03-26T01:50:51.374Z,79.62
2023-03-26T01:51:32.380Z,79.47
2023-03-26T01:52:12.923Z,79.52
2023-03-26T01:52:44.540Z,79.65
2023-03-26T01:53:16.270Z,79.62
2023-03-26T01:53:48.372Z,79.52
2023-03-26T01:54:23.491Z,79.42
2023-03-26T01:54:56.846Z,79.60
2023-03-26T01:56:02.149Z,79.42
2023-03-26T01:56:57.130Z,79.46
2023-03-26T01:57:47.517Z,79.12
2023-03-26T01:58:33.994Z,79.04
2023-03-26T01:59:17.508Z,79.41
2023-03-26T02:00:04.704Z,79.31
2023-03-26T02:00:45.378Z,79.33
2023-03-26T02:01:55.945Z,79.48
2023-03-26T02:02:38.876Z,79.42
2023-03-26T02:03:57.160Z,79.33
2023-03-26T02:04:41.174Z,79.37
2023-03-26T02:05:43.950Z,79.68
2023-03-26T02:06:44.662Z,79.73
2023-03-26T02:07:25.463Z,79.76
2023-03-26T02:08:05.676Z,79.79
2023-03-26T02:08:46.646Z,79.68
2023-03-26T02:09:24.915Z,79.73
2023-03-26T02:10:00.635Z,80.00
2023-03-26T02:10:38.194Z,79.75
2023-03-26T02:11:13.247Z,79.83
2023-03-26T02:11:46.849Z,79.43
2023-03-26T02:12:21.007Z,79.52
2023-03-26T02:12:53.049Z,79.67
2023-03-26T02:13:26.410Z,79.71
2023-03-26T02:13:58.325Z,79.53
2023-03-26T02:14:31.019Z,79.46
2023-03-26T02:15:04.770Z,79.67
2023-03-26T02:15:36.459Z,79.70
2023-03-26T02:16:14.261Z,79.76
2023-03-26T02:16:47.002Z,79.74
2023-03-26T02:17:19.290Z,79.73
2023-03-26T02:17:52.490Z,79.69
2023-03-26T02:18:24.493Z,79.90
2023-03-26T02:18:56.091Z,79.95
2023-03-26T02:19:27.682Z,79.85
2023-03-26T02:19:59.351Z,79.86
2023-03-26T02:20:31.306Z,79.90
2023-03-26T02:21:12.395Z,79.90
2023-03-26T02:21:44.066Z,79.93
2023-03-26T02:22:16.119Z,80.05
2023-03-26T02:22:47.965Z,79.69
2023-03-26T02:23:20.872Z,79.80
2023-03-26T02:24:02.983Z,80.09
2023-03-26T02:24:34.971Z,80.23
2023-03-26T02:25:11.377Z,80.48
2023-03-26T02:25:43.932Z,80.57
2023-03-26T02:26:18.406Z,80.41
2023-03-26T02:26:50.062Z,80.31
2023-03-26T02:27:21.889Z,80.33
2023-03-26T02:27:53.864Z,80.33
2023-03-26T02:28:25.857Z,80.40
2023-03-26T02:28:58.616Z,80.32
2023-03-26T02:29:30.351Z,80.28
2023-03-26T02:30:02.451Z,80.29
2023-03-26T02:30:34.025Z,80.43
2023-03-26T02:31:06.559Z,80.40
2023-03-26T02:31:38.237Z,80.36
2023-03-26T02:32:14.552Z,80.60
2023-03-26T02:32:46.233Z,80.73
2023-03-26T02:33:17.853Z,80.75
2023-03-26T02:33:49.586Z,80.90
2023-03-26T02:34:21.666Z,81.18
2023-03-26T02:34:53.311Z,81.17
2023-03-26T02:35:25.055Z,81.09
2023-03-26T02:35:59.610Z,81.15
2023-03-26T02:36:31.626Z,81.27
2023-03-26T02:37:03.312Z,81.60
2023-03-26T02:37:34.941Z,81.83
2023-03-26T02:38:06.742Z,82.01
2023-03-26T02:38:38.318Z,82.05
2023-03-26T02:39:14.452Z,81.91
2023-03-26T02:39:46.471Z,81.93
2023-03-26T02:40:21.167Z,81.99
2023-03-26T02:40:54.436Z,81.98
2023-03-26T02:41:26.140Z,82.16
2023-03-26T02:41:57.771Z,82.24
2023-03-26T02:42:29.350Z,82.55
2023-03-26T02:43:00.996Z,82.82
2023-03-26T02:43:32.623Z,83.08
2023-03-26T02:44:05.860Z,83.11
2023-03-26T02:44:40.180Z,83.42
2023-03-26T02:45:11.807Z,83.75
2023-03-26T02:45:43.461Z,83.95
2023-03-26T02:46:15.172Z,84.04
2023-03-26T02:46:46.777Z,84.16
2023-03-26T02:47:18.542Z,84.19
2023-03-26T02:47:51.077Z,84.22
2023-03-26T02:48:23.269Z,84.21
2023-03-26T02:48:54.893Z,84.24
2023-03-26T02:49:26.509Z,84.25
2023-03-26T02:49:58.077Z,84.17
2023-03-26T02:50:32.579Z,84.16
2023-03-26T02:51:04.582Z,84.32
2023-03-26T02:51:37.496Z,84.39
2023-03-26T02:52:09.136Z,84.30
2023-03-26T02:52:40.743Z,84.24
2023-03-26T02:53:13.716Z,84.17
2023-03-26T02:53:46.074Z,84.16
2023-03-26T02:54:18.298Z,84.24
2023-03-26T02:54:49.924Z,84.50
2023-03-26T02:55:21.688Z,84.62
2023-03-26T02:55:53.500Z,84.59
2023-03-26T02:56:25.521Z,84.65
2023-03-26T02:56:57.274Z,84.84
2023-03-26T02:57:29.140Z,84.93
2023-03-26T02:58:00.867Z,85.01
2023-03-26T02:58:33.413Z,85.09
2023-03-26T02:59:05.056Z,85.17
2023-03-26T02:59:36.671Z,85.11
2023-03-26T03:00:14.611Z,85.19
2023-03-26T03:00:46.991Z,85.18
2023-03-26T03:01:18.742Z,85.21
2023-03-26T03:01:50.422Z,85.01
2023-03-26T03:02:24.362Z,84.92
2023-03-26T03:02:58.147Z,84.80
2023-03-26T03:03:30.567Z,84.69
2023-03-26T03:04:04.380Z,84.88
2023-03-26T03:04:36.123Z,85.24
2023-03-26T03:05:08.496Z,85.26
2023-03-26T03:05:43.220Z,85.08
2023-03-26T03:06:18.948Z,85.05
2023-03-26T03:06:53.126Z,85.00
2023-03-26T03:07:25.245Z,84.97
2023-03-26T03:07:58.132Z,85.04
2023-03-26T03:08:29.955Z,85.03
2023-03-26T03:09:02.873Z,85.12
2023-03-26T03:09:34.774Z,85.04
2023-03-26T03:10:08.705Z,84.91
2023-03-26T03:10:40.275Z,84.92
2023-03-26T03:11:14.992Z,84.98
2023-03-26T03:11:46.611Z,85.07
2023-03-26T03:12:18.222Z,84.98
2023-03-26T03:12:49.849Z,84.79
2023-03-26T03:13:21.471Z,84.94
2023-03-26T03:13:54.050Z,85.51
2023-03-26T03:14:25.725Z,85.50
2023-03-26T03:14:57.319Z,85.37
2023-03-26T03:15:28.917Z,85.33
2023-03-26T03:16:00.778Z,85.24
2023-03-26T03:16:32.993Z,85.35
2023-03-26T03:17:04.793Z,85.54
2023-03-26T03:17:36.561Z,85.68
2023-03-26T03:18:08.170Z,85.75
2023-03-26T03:18:40.098Z,85.90
2023-03-26T03:19:12.414Z,85.82
2023-03-26T03:19:44.053Z,86.45
2023-03-26T03:20:16.727Z,86.39
2023-03-26T03:20:48.486Z,86.39
2023-03-26T03:21:21.188Z,86.42
2023-03-26T03:21:52.813Z,86.65
2023-03-26T03:22:24.382Z,86.70
2023-03-26T03:22:56.053Z,86.68
2023-03-26T03:23:27.678Z,86.60
2023-03-26T03:23:59.988Z,86.27
2023-03-26T03:24:34.097Z,86.04
2023-03-26T03:25:09.025Z,86.10
2023-03-26T03:25:41.285Z,86.22
2023-03-26T03:26:15.984Z,86.32
2023-03-26T03:26:47.832Z,86.13
2023-03-26T03:27:20.533Z,86.37
2023-03-26T03:27:54.047Z,86.39
2023-03-26T03:28:26.723Z,86.42
2023-03-26T03:28:58.473Z,86.56
2023-03-26T03:29:30.283Z,86.60
2023-03-26T03:30:01.999Z,86.76
2023-03-26T03:30:33.803Z,86.66
2023-03-26T03:31:05.459Z,86.81
2023-03-26T03:31:37.100Z,86.91
2023-03-26T03:32:08.744Z,86.96
2023-03-26T03:32:40.466Z,87.06
2023-03-26T03:33:13.148Z,87.19
2023-03-26T03:33:46.539Z,87.19
2023-03-26T03:34:18.258Z,87.18
2023-03-26T03:34:50.887Z,87.14
2023-03-26T03:35:22.659Z,86.95
2023-03-26T03:35:54.480Z,86.84
2023-03-26T03:36:28.049Z,87.13
2023-03-26T03:36:59.701Z,87.14
2023-03-26T03:37:31.471Z,87.03
2023-03-26T03:38:03.139Z,86.84
2023-03-26T03:38:34.722Z,86.74
2023-03-26T03:39:06.558Z,86.74
2023-03-26T03:39:38.131Z,86.82
2023-03-26T03:40:11.016Z,87.02
2023-03-26T03:40:43.396Z,87.22
2023-03-26T03:41:15.478Z,87.50
2023-03-26T03:41:47.086Z,87.55
2023-03-26T03:42:18.810Z,87.84
2023-03-26T03:42:51.237Z,87.99
2023-03-26T03:43:22.836Z,87.93
2023-03-26T03:43:54.397Z,87.81
2023-03-26T03:44:28.286Z,87.80
2023-03-26T03:44:59.868Z,87.61
2023-03-26T03:45:31.454Z,88.04
2023-03-26T03:46:03.738Z,88.66
2023-03-26T03:46:35.610Z,88.62
2023-03-26T03:47:07.309Z,88.66
2023-03-26T03:47:39.064Z,88.59
2023-03-26T03:48:10.828Z,88.42
2023-03-26T03:48:48.239Z,88.20
2023-03-26T03:49:20.056Z,88.19
2023-03-26T03:49:51.940Z,88.09
2023-03-26T03:50:23.532Z,88.49
2023-03-26T03:50:56.499Z,88.53
2023-03-26T03:51:28.114Z,88.54
2023-03-26T03:51:59.804Z,88.66
2023-03-26T03:52:31.421Z,88.31
2023-03-26T03:53:05.718Z,88.05
2023-03-26T03:53:40.658Z,87.44
2023-03-26T03:54:12.245Z,87.47
2023-03-26T03:54:43.933Z,87.73
2023-03-26T03:55:15.647Z,87.72
2023-03-26T03:55:53.785Z,87.66
2023-03-26T03:56:26.137Z,87.37
2023-03-26T03:56:58.499Z,86.74
2023-03-26T03:57:32.037Z,86.74
2023-03-26T03:58:06.070Z,86.79
2023-03-26T03:58:37.730Z,86.67
2023-03-26T03:59:10.301Z,86.51
2023-03-26T03:59:47.980Z,86.78
2023-03-26T04:00:20.521Z,87.28
2023-03-26T04:00:52.632Z,87.08
2023-03-26T04:01:24.713Z,86.96
2023-03-26T04:01:56.431Z,87.30
2023-03-26T04:02:34.972Z,87.93
2023-03-26T04:03:07.123Z,87.80
2023-03-26T04:03:42.292Z,87.66
2023-03-26T04:04:14.139Z,87.68
2023-03-26T04:04:46.393Z,87.66
2023-03-26T04:05:18.024Z,87.66
2023-03-26T04:05:49.693Z,87.54
2023-03-26T04:06:21.277Z,88.05
2023-03-26T04:06:53.086Z,88.14
2023-03-26T04:07:26.194Z,88.28
2023-03-26T04:07:59.806Z,88.23
2023-03-26T04:08:31.424Z,88.22
2023-03-26T04:09:03.142Z,88.28
2023-03-26T04:09:34.761Z,88.46
2023-03-26T04:10:08.375Z,88.42
2023-03-26T04:10:41.051Z,88.20
2023-03-26T04:11:14.009Z,88.44
2023-03-26T04:11:45.671Z,88.62
2023-03-26T04:12:17.303Z,88.64
2023-03-26T04:12:49.369Z,88.99
2023-03-26T04:13:21.631Z,88.71
2023-03-26T04:13:53.267Z,88.69
2023-03-26T04:14:24.889Z,88.77
2023-03-26T04:14:56.934Z,88.70
2023-03-26T04:15:28.643Z,88.93
2023-03-26T04:16:00.620Z,89.05
2023-03-26T04:16:32.377Z,89.06
2023-03-26T04:17:05.973Z,88.85
2023-03-26T04:17:42.551Z,88.75
2023-03-26T04:18:14.625Z,88.85
2023-03-26T04:18:46.495Z,88.69
2023-03-26T04:19:18.233Z,88.75
2023-03-26T04:19:50.551Z,88.88
2023-03-26T04:20:22.161Z,89.03
2023-03-26T04:20:55.747Z,88.97
2023-03-26T04:21:30.295Z,88.90
2023-03-26T04:22:02.494Z,88.78
2023-03-26T04:22:36.617Z,88.95
2023-03-26T04:23:14.042Z,88.94
2023-03-26T04:23:45.778Z,88.86
2023-03-26T04:24:17.333Z,88.99
2023-03-26T04:24:50.236Z,89.06
2023-03-26T04:25:21.833Z,88.86
2023-03-26T04:25:55.020Z,88.65
2023-03-26T04:26:30.829Z,88.52
2023-03-26T04:27:02.595Z,88.55
2023-03-26T04:27:36.959Z,88.64
2023-03-26T04:28:09.102Z,88.88
2023-03-26T04:28:48.046Z,88.98
2023-03-26T04:29:22.116Z,88.98
2023-03-26T04:29:53.859Z,89.07
2023-03-26T04:30:27.354Z,89.29
2023-03-26T04:31:01.122Z,89.18
2023-03-26T04:31:34.246Z,89.11
2023-03-26T04:32:09.098Z,89.29
2023-03-26T04:32:43.001Z,89.33
2023-03-26T04:33:15.536Z,89.43
2023-03-26T04:33:47.810Z,89.35
2023-03-26T04:34:26.439Z,89.46
2023-03-26T04:35:01.033Z,89.39
2023-03-26T04:35:36.714Z,89.38
2023-03-26T04:36:09.627Z,89.53
2023-03-26T04:36:42.506Z,89.57
2023-03-26T04:37:22.587Z,89.72
2023-03-26T04:37:54.518Z,89.43
2023-03-26T04:38:26.324Z,89.39
2023-03-26T04:39:02.508Z,89.24
2023-03-26T04:39:36.347Z,89.27
2023-03-26T04:40:15.220Z,89.32
2023-03-26T04:40:49.556Z,89.63
2023-03-26T04:41:22.588Z,89.86
2023-03-26T04:41:54.171Z,89.83
2023-03-26T04:42:25.789Z,89.50
2023-03-26T04:42:59.939Z,89.28
2023-03-26T04:43:35.629Z,89.05
2023-03-26T04:44:07.492Z,88.90
2023-03-26T04:44:42.388Z,89.17
2023-03-26T04:45:16.371Z,89.52
2023-03-26T04:45:48.011Z,89.42
2023-03-26T04:46:23.654Z,89.31
2023-03-26T04:46:55.764Z,89.18
2023-03-26T04:47:29.065Z,89.19
2023-03-26T04:48:00.832Z,89.05
2023-03-26T04:48:32.718Z,88.92
2023-03-26T04:49:04.391Z,89.03
2023-03-26T04:49:36.224Z,88.96
2023-03-26T04:50:09.482Z,88.75
2023-03-26T04:50:45.437Z,88.85
2023-03-26T04:51:18.625Z,89.14
2023-03-26T04:51:50.282Z,89.08
2023-03-26T04:52:21.886Z,89.35
2023-03-26T04:52:56.835Z,89.54
2023-03-26T04:53:28.536Z,89.73
2023-03-26T04:54:00.521Z,89.53
2023-03-26T04:54:32.199Z,89.52
2023-03-26T04:55:07.719Z,89.36
2023-03-26T04:55:49.405Z,89.30
2023-03-26T04:56:32.378Z,89.07
2023-03-26T04:57:07.887Z,89.20
2023-03-26T04:57:43.705Z,89.10
2023-03-26T04:58:15.417Z,89.25
2023-03-26T04:58:48.186Z,89.54
2023-03-26T04:59:30.187Z,89.52
2023-03-26T05:00:16.673Z,89.64
2023-03-26T05:00:49.699Z,89.14
2023-03-26T05:01:21.731Z,89.30
2023-03-26T05:01:54.063Z,89.60
2023-03-26T05:02:26.251Z,89.19
2023-03-26T05:03:01.706Z,88.90
2023-03-26T05:03:33.879Z,89.05
2023-03-26T05:04:05.840Z,88.69
2023-03-26T05:04:40.347Z,88.59
2023-03-26T05:05:12.340Z,88.30
2023-03-26T05:05:44.025Z,88.49
2023-03-26T05:06:17.764Z,88.68
2023-03-26T05:06:49.692Z,88.47
2023-03-26T05:07:25.378Z,88.74
2023-03-26T05:07:57.054Z,89.03
2023-03-26T05:08:28.883Z,88.81
2023-03-26T05:09:02.202Z,88.65
2023-03-26T05:09:33.822Z,88.10
2023-03-26T05:10:06.204Z,88.42
2023-03-26T05:10:37.772Z,88.08
2023-03-26T05:11:12.451Z,87.87
2023-03-26T05:11:44.049Z,88.33
2023-03-26T05:12:16.599Z,88.78
2023-03-26T05:12:48.390Z,88.32
2023-03-26T05:13:20.018Z,88.03
2023-03-26T05:13:51.738Z,87.70
2023-03-26T05:14:23.379Z,87.47
2023-03-26T05:14:55.114Z,87.06
2023-03-26T05:15:26.846Z,87.14
2023-03-26T05:15:58.443Z,87.11
2023-03-26T05:16:31.910Z,87.20
2023-03-26T05:17:11.006Z,87.03
2023-03-26T05:17:43.110Z,86.08
2023-03-26T05:18:14.819Z,85.86
2023-03-26T05:18:46.886Z,85.78
2023-03-26T05:19:18.798Z,85.98
2023-03-26T05:19:52.125Z,86.79
2023-03-26T05:20:26.507Z,86.29
2023-03-26T05:20:58.162Z,85.79
2023-03-26T05:21:29.891Z,85.24
2023-03-26T05:22:02.359Z,85.03
2023-03-26T05:22:34.898Z,84.94
2023-03-26T05:23:08.270Z,84.72
2023-03-26T05:23:39.885Z,84.65
2023-03-26T05:24:11.724Z,84.62
2023-03-26T05:24:43.327Z,84.59
2023-03-26T05:25:15.601Z,84.55
2023-03-26T05:25:47.334Z,84.58
2023-03-26T05:26:19.296Z,84.60
2023-03-26T05:26:51.910Z,84.42
2023-03-26T05:27:23.570Z,84.40
2023-03-26T05:27:55.390Z,84.41
2023-03-26T05:28:28.257Z,84.36
2023-03-26T05:29:00.369Z,84.19
2023-03-26T05:29:32.009Z,84.07
2023-03-26T05:30:05.648Z,84.13
2023-03-26T05:30:37.237Z,84.23
2023-03-26T05:31:09.916Z,84.00
2023-03-26T05:31:41.667Z,84.12
2023-03-26T05:32:13.328Z,84.46
2023-03-26T05:32:47.405Z,85.05
2023-03-26T05:33:23.557Z,86.01
2023-03-26T05:33:55.520Z,85.70
2023-03-26T05:34:27.357Z,85.33
2023-03-26T05:34:59.178Z,84.91
2023-03-26T05:35:30.956Z,84.76
2023-03-26T05:36:05.691Z,84.10
2023-03-26T05:36:37.900Z,83.77
2023-03-26T05:37:09.674Z,83.58
2023-03-26T05:37:41.283Z,83.27
2023-03-26T05:38:12.975Z,83.05
2023-03-26T05:38:49.796Z,82.96
2023-03-26T05:39:25.745Z,82.79
2023-03-26T05:39:58.188Z,82.54
2023-03-26T05:40:29.942Z,82.24
2023-03-26T05:41:03.877Z,82.30
2023-03-26T05:41:35.573Z,82.36
2023-03-26T05:42:07.947Z,82.33
2023-03-26T05:42:40.649Z,82.45
2023-03-26T05:43:12.210Z,83.44
2023-03-26T05:43:45.051Z,83.50
2023-03-26T05:44:18.454Z,83.48
2023-03-26T05:44:50.057Z,83.01
2023-03-26T05:45:22.459Z,83.28
2023-03-26T05:45:54.231Z,82.22
2023-03-26T05:46:26.028Z,81.99
2023-03-26T05:46:57.621Z,81.93
2023-03-26T05:47:29.321Z,82.98
2023-03-26T05:48:01.644Z,82.62
2023-03-26T05:48:33.374Z,81.80
2023-03-26T05:49:04.942Z,81.66
2023-03-26T05:49:36.526Z,81.76
2023-03-26T05:50:09.510Z,81.30
2023-03-26T05:50:41.456Z,80.57
2023-03-26T05:51:15.503Z,80.24
2023-03-26T05:51:47.111Z,79.49
2023-03-26T05:52:19.171Z,79.29
2023-03-26T05:52:51.065Z,79.22
2023-03-26T05:53:24.338Z,79.66
2023-03-26T05:53:55.934Z,80.29
2023-03-26T05:54:27.734Z,80.86
2023-03-26T05:54:59.336Z,81.13
2023-03-26T05:55:33.465Z,81.10
2023-03-26T05:56:05.698Z,80.78
2023-03-26T05:56:37.394Z,80.85
2023-03-26T05:57:09.106Z,81.12
2023-03-26T05:57:42.027Z,81.36
2023-03-26T05:58:14.209Z,81.29
2023-03-26T05:58:45.856Z,80.52
2023-03-26T05:59:17.455Z,80.70
2023-03-26T05:59:49.107Z,80.61
2023-03-26T06:00:20.774Z,80.26
2023-03-26T06:01:05.872Z,79.61
2023-03-26T06:01:38.513Z,79.93
2023-03-26T06:02:11.251Z,80.21
2023-03-26T06:02:42.978Z,79.78
2023-03-26T06:03:16.560Z,79.28
2023-03-26T06:03:50.680Z,78.98
2023-03-26T06:04:22.393Z,79.28
2023-03-26T06:04:54.091Z,78.50
2023-03-26T06:05:26.956Z,78.02
2023-03-26T06:05:59.302Z,78.77
2023-03-26T06:06:33.076Z,78.90
2023-03-26T06:07:04.912Z,78.66
2023-03-26T06:07:36.566Z,78.42
2023-03-26T06:08:08.489Z,78.61
2023-03-26T06:08:41.254Z,79.04
2023-03-26T06:09:13.366Z,79.40
2023-03-26T06:09:45.258Z,79.40
2023-03-26T06:10:18.276Z,79.17
2023-03-26T06:10:53.589Z,80.05
2023-03-26T06:11:25.817Z,79.91
2023-03-26T06:11:57.440Z,79.37
2023-03-26T06:12:29.171Z,79.29
2023-03-26T06:13:00.835Z,79.03
2023-03-26T06:13:32.412Z,80.73
2023-03-26T06:14:04.028Z,81.72
2023-03-26T06:14:36.147Z,81.37
2023-03-26T06:15:08.622Z,80.64
2023-03-26T06:15:40.405Z,80.26
2023-03-26T06:16:26.324Z,79.56
2023-03-26T06:16:59.099Z,79.68
2023-03-26T06:17:30.912Z,79.73
2023-03-26T06:18:02.603Z,79.77
2023-03-26T06:18:34.359Z,79.08
2023-03-26T06:19:06.124Z,79.22
2023-03-26T06:19:37.986Z,78.97
2023-03-26T06:20:10.310Z,79.05
2023-03-26T06:20:42.279Z,78.89
2023-03-26T06:21:13.864Z,78.56
2023-03-26T06:21:45.907Z,78.20
2023-03-26T06:22:17.497Z,78.47
2023-03-26T06:22:49.175Z,78.37
2023-03-26T06:23:21.024Z,78.38
2023-03-26T06:23:53.253Z,78.40
2023-03-26T06:24:24.922Z,78.73
2023-03-26T06:24:56.648Z,78.39
2023-03-26T06:25:28.274Z,78.60
2023-03-26T06:26:00.181Z,78.47
2023-03-26T06:26:31.855Z,78.27
2023-03-26T06:27:03.527Z,78.10
2023-03-26T06:27:35.272Z,77.34
2023-03-26T06:28:07.100Z,76.61
2023-03-26T06:28:39.200Z,75.18
2023-03-26T06:29:11.074Z,74.48
2023-03-26T06:29:42.697Z,72.55
2023-03-26T06:30:14.598Z,72.19
2023-03-26T06:30:46.273Z,71.71
2023-03-26T06:31:19.323Z,71.39
2023-03-26T06:31:51.050Z,70.58
2023-03-26T06:32:22.829Z,70.19
2023-03-26T06:32:54.487Z,70.21
2023-03-26T06:33:26.089Z,70.99
2023-03-26T06:33:57.684Z,69.45
2023-03-26T06:34:29.370Z,68.52
2023-03-26T06:35:01.064Z,67.82
2023-03-26T06:35:33.044Z,68.03
2023-03-26T06:36:05.434Z,67.78
2023-03-26T06:36:37.076Z,68.50
2023-03-26T06:37:08.714Z,68.44
2023-03-26T06:37:40.438Z,68.68
2023-03-26T06:38:12.722Z,68.57
2023-03-26T06:38:44.408Z,68.72
2023-03-26T06:39:16.226Z,68.55
2023-03-26T06:39:47.825Z,68.38
2023-03-26T06:40:19.401Z,68.67
2023-03-26T06:40:51.259Z,68.86
2023-03-26T06:41:23.794Z,69.17
2023-03-26T06:41:55.540Z,69.25
2023-03-26T06:43:06.699Z,68.66
2023-03-26T06:43:20.154Z,68.95
2023-03-26T06:43:51.966Z,70.34
2023-03-26T06:44:23.568Z,70.51
2023-03-26T06:44:55.258Z,71.00
2023-03-26T06:45:30.383Z,71.28
2023-03-26T06:46:02.541Z,70.95
2023-03-26T06:46:34.173Z,71.26
2023-03-26T06:47:05.854Z,71.74
2023-03-26T06:47:37.537Z,71.38
2023-03-26T06:48:09.224Z,71.32
2023-03-26T06:48:42.294Z,71.09
2023-03-26T06:49:13.984Z,71.05
2023-03-26T06:49:45.711Z,71.17
2023-03-26T06:50:17.375Z,70.32
2023-03-26T06:50:48.978Z,70.41
2023-03-26T06:51:20.550Z,70.34
2023-03-26T06:51:52.118Z,70.28
2023-03-26T06:52:23.729Z,70.90
2023-03-26T06:52:56.287Z,70.87
2023-03-26T06:53:27.962Z,70.33
2023-03-26T06:53:59.549Z,69.78
2023-03-26T06:54:31.333Z,69.53
2023-03-26T06:55:03.169Z,69.18
2023-03-26T06:55:34.849Z,70.20
2023-03-26T06:56:09.027Z,69.81
2023-03-26T06:56:40.857Z,67.70
2023-03-26T06:57:12.513Z,66.75
2023-03-26T06:57:48.751Z,65.84
2023-03-26T06:58:20.957Z,63.96
2023-03-26T06:58:52.556Z,62.68
2023-03-26T06:59:24.119Z,62.72
2023-03-26T06:59:55.710Z,61.49
2023-03-26T07:00:27.297Z,62.62
2023-03-26T07:00:59.133Z,61.04
2023-03-26T07:01:31.050Z,61.43
2023-03-26T07:02:02.676Z,63.42
2023-03-26T07:02:35.675Z,63.14
2023-03-26T07:03:07.337Z,60.42
2023-03-26T07:03:39.036Z,58.55
2023-03-26T07:04:10.817Z,56.01
2023-03-26T07:04:42.507Z,55.20
2023-03-26T07:05:14.738Z,53.47
2023-03-26T07:05:47.062Z,52.80
2023-03-26T07:06:18.665Z,51.83
2023-03-26T07:06:50.344Z,52.03
2023-03-26T07:07:24.008Z,51.31
2023-03-26T07:07:55.702Z,51.71
2023-03-26T07:08:27.397Z,50.57
2023-03-26T07:08:59.093Z,49.31
2023-03-26T07:09:30.744Z,48.90
2023-03-26T07:10:02.405Z,48.08
2023-03-26T07:10:34.012Z,47.40
2023-03-26T07:11:06.097Z,47.39
2023-03-26T07:11:37.814Z,48.56
2023-03-26T07:12:09.825Z,49.35
2023-03-26T07:12:42.508Z,51.00
2023-03-26T07:13:14.149Z,51.84
2023-03-26T07:13:47.611Z,49.95
2023-03-26T07:14:19.229Z,50.95
2023-03-26T07:14:50.799Z,51.70
2023-03-26T07:15:22.369Z,52.11
2023-03-26T07:15:53.983Z,52.20
2023-03-26T07:16:25.985Z,51.07
2023-03-26T07:17:01.259Z,50.61